Time;durP1;ratioP1;P1;durP2;ratioP2;P2;SDS_P1;SDS_P2;PMS_P1;PMS_P2;Temp;Humidity;BMP_temperature;BMP_pressure;BME280_temperature;BME280_humidity;BME280_pressure;Samples;Min_cycle;Max_cycle;Signal;HPM_P1;HPM_P2
2023/03/03 00:02:23;;;;;;;41.33;26.73;;;;;;;0.29;100.00;96791.28;5072927;28;20229;-59
2023/03/03 00:04:49;;;;;;;40.17;25.43;;;;;;;0.28;100.00;96781.81;5073006;28;20223;-60
2023/03/03 00:07:21;;;;;;;44.03;27.00;;;;;;;0.30;100.00;96786.91;5072970;28;20590;-60
2023/03/03 00:09:48;;;;;;;38.37;25.87;;;;;;;0.38;100.00;96790.81;5072916;28;20200;-59
2023/03/03 00:12:21;;;;;;;36.00;24.93;;;;;;;0.48;100.00;96786.84;5072125;28;20274;-60
2023/03/03 00:14:49;;;;;;;40.93;25.23;;;;;;;0.48;100.00;96791.19;5073411;28;20211;-60
2023/03/03 00:17:21;;;;;;;37.60;25.33;;;;;;;0.58;100.00;96784.59;5072801;28;20208;-60
2023/03/03 00:19:48;;;;;;;38.20;26.60;;;;;;;0.61;100.00;96784.44;5073642;28;20210;-59
2023/03/03 00:22:24;;;;;;;44.47;28.73;;;;;;;0.68;100.00;96782.34;5072940;28;20233;-59
2023/03/03 00:24:51;;;;;;;43.03;26.77;;;;;;;0.68;100.00;96791.00;5072731;28;20203;-60
2023/03/03 00:27:28;;;;;;;38.13;25.87;;;;;;;0.76;100.00;96781.03;5072578;28;20666;-60
2023/03/03 00:29:57;;;;;;;37.93;25.80;;;;;;;0.77;100.00;96784.50;5073207;28;20285;-59
2023/03/03 00:32:26;;;;;;;40.73;25.93;;;;;;;0.83;100.00;96772.00;5072209;28;20209;-60
2023/03/03 00:34:54;;;;;;;38.50;26.00;;;;;;;0.83;100.00;96785.00;5073174;28;20203;-60
2023/03/03 00:37:28;;;;;;;41.43;26.67;;;;;;;0.90;100.00;96782.91;5073344;28;20220;-60
2023/03/03 00:39:59;;;;;;;39.97;28.57;;;;;;;0.92;100.00;96776.69;5072530;28;20668;-59
2023/03/03 00:42:27;;;;;;;39.70;26.67;;;;;;;1.03;100.00;96775.31;5072956;28;20205;-60
2023/03/03 00:44:58;;;;;;;42.47;26.80;;;;;;;1.12;100.00;96775.66;5072436;28;20690;-59
2023/03/03 00:47:28;;;;;;;39.70;27.67;;;;;;;1.17;100.00;96775.41;5072884;28;20319;-59
2023/03/03 00:49:56;;;;;;;40.57;28.50;;;;;;;1.15;100.00;96772.88;5072135;28;20213;-60
2023/03/03 00:52:24;;;;;;;43.13;28.97;;;;;;;1.18;100.00;96777.91;5072464;28;20206;-60
2023/03/03 00:54:50;;;;;;;40.10;27.63;;;;;;;1.20;100.00;96772.63;5072405;28;20212;-60
2023/03/03 00:57:18;;;;;;;41.53;26.37;;;;;;;1.28;100.00;96775.63;5072667;28;20218;-60
2023/03/03 00:59:45;;;;;;;41.90;27.13;;;;;;;1.31;100.00;96778.91;5072885;28;20212;-60
2023/03/03 01:02:13;;;;;;;38.77;26.57;;;;;;;1.32;100.00;96774.56;5072375;28;20209;-60
2023/03/03 01:04:40;;;;;;;40.47;27.80;;;;;;;1.33;100.00;96774.47;5072161;28;20711;-59
2023/03/03 01:07:06;;;;;;;39.80;27.63;;;;;;;1.32;100.00;96766.75;5072647;28;20214;-60
2023/03/03 01:09:33;;;;;;;39.70;27.53;;;;;;;1.41;100.00;96779.28;5071469;28;20643;-59
2023/03/03 01:12:00;;;;;;;41.43;27.37;;;;;;;1.45;100.00;96765.16;5073051;28;20630;-60
2023/03/03 01:14:26;;;;;;;36.53;26.37;;;;;;;1.48;100.00;96765.00;5072271;28;20205;-59
2023/03/03 01:16:53;;;;;;;41.93;27.40;;;;;;;1.45;100.00;96765.16;5071922;28;20232;-60
2023/03/03 01:19:21;;;;;;;37.83;26.33;;;;;;;1.48;100.00;96770.19;5072349;28;20645;-60
2023/03/03 01:21:47;;;;;;;36.07;25.90;;;;;;;1.56;100.00;96765.38;5071641;28;20647;-60
2023/03/03 01:24:14;;;;;;;37.97;27.13;;;;;;;1.58;100.00;96760.94;5072590;28;20230;-59
2023/03/03 01:26:42;;;;;;;44.40;30.37;;;;;;;1.59;100.00;96764.41;5072391;28;20217;-60
2023/03/03 01:29:08;;;;;;;44.80;30.03;;;;;;;1.57;100.00;96769.69;5072372;28;20231;-60
2023/03/03 01:31:35;;;;;;;42.37;28.77;;;;;;;1.58;100.00;96766.16;5071314;28;20213;-60
2023/03/03 01:34:01;;;;;;;41.87;29.43;;;;;;;1.65;100.00;96766.66;5071768;28;20197;-60
2023/03/03 01:36:31;;;;;;;47.17;30.30;;;;;;;1.73;100.00;96765.31;5072022;28;20589;-59
2023/03/03 01:38:57;;;;;;;44.07;29.17;;;;;;;1.72;100.00;96763.63;5071560;28;20208;-60
2023/03/03 01:41:27;;;;;;;43.23;29.87;;;;;;;1.75;100.00;96758.22;5070626;28;20224;-60
2023/03/03 01:43:54;;;;;;;45.10;29.73;;;;;;;1.80;100.00;96765.78;5072307;28;20247;-60
2023/03/03 01:46:48;;;;;;;44.90;30.07;;;;;;;1.81;100.00;96765.69;5069767;28;20208;-60
2023/03/03 01:49:17;;;;;;;46.23;30.70;;;;;;;1.83;100.00;96756.03;5071932;28;20685;-60
2023/03/03 01:51:49;;;;;;;44.10;30.93;;;;;;;1.88;100.00;96759.19;5071561;28;20210;-59
2023/03/03 01:54:20;;;;;;;38.93;29.07;;;;;;;1.93;100.00;96757.19;5072277;28;20209;-59
2023/03/03 01:56:47;;;;;;;43.80;29.00;;;;;;;1.89;100.00;96760.03;5072244;28;20215;-60
2023/03/03 01:59:16;;;;;;;47.23;31.00;;;;;;;1.83;100.00;96761.25;5071813;28;20209;-60
2023/03/03 02:01:43;;;;;;;45.60;29.00;;;;;;;1.86;100.00;96755.84;5073667;28;20216;-60
2023/03/03 02:04:09;;;;;;;41.77;28.13;;;;;;;1.92;100.00;96759.88;5073970;28;20676;-60
2023/03/03 02:06:39;;;;;;;42.47;29.27;;;;;;;1.95;100.00;96755.31;5077108;28;20201;-60
2023/03/03 02:09:12;;;;;;;43.53;29.03;;;;;;;1.90;100.00;96751.31;5073403;28;20212;-60
2023/03/03 02:11:48;;;;;;;42.03;29.13;;;;;;;1.88;100.00;96753.97;5072224;28;20293;-60
2023/03/03 02:14:15;;;;;;;37.57;27.30;;;;;;;1.98;100.00;96755.13;5071877;28;20202;-60
2023/03/03 02:16:41;;;;;;;42.30;28.67;;;;;;;1.96;100.00;96750.94;5071351;28;20208;-60
2023/03/03 02:19:18;;;;;;;43.07;29.00;;;;;;;1.98;100.00;96755.13;5070287;28;20258;-60
2023/03/03 02:21:44;;;;;;;45.03;29.40;;;;;;;1.95;100.00;96763.13;5070943;28;20231;-59
2023/03/03 02:24:18;;;;;;;43.97;28.23;;;;;;;2.06;100.00;96756.47;5071280;28;20198;-60
2023/03/03 02:26:48;;;;;;;39.70;27.60;;;;;;;2.09;100.00;96749.28;5070444;28;20301;-60
2023/03/03 02:29:17;;;;;;;41.17;28.17;;;;;;;2.05;100.00;96749.59;5070387;28;20209;-60
2023/03/03 02:31:44;;;;;;;43.63;29.50;;;;;;;2.02;100.00;96749.78;5070544;28;20207;-60
2023/03/03 02:34:10;;;;;;;43.57;29.87;;;;;;;1.98;100.00;96754.31;5070906;28;20220;-60
2023/03/03 02:36:39;;;;;;;39.13;27.00;;;;;;;2.05;100.00;96752.19;5070383;28;20534;-59
2023/03/03 02:39:11;;;;;;;40.40;27.80;;;;;;;2.06;100.00;96748.63;5070697;28;20646;-60
2023/03/03 02:41:42;;;;;;;41.53;29.00;;;;;;;2.07;100.00;96755.53;5070918;28;20198;-60
2023/03/03 02:44:11;;;;;;;41.67;28.43;;;;;;;2.06;100.00;96757.31;5070591;28;20649;-59
2023/03/03 02:46:39;;;;;;;44.50;29.07;;;;;;;2.05;100.00;96752.19;5070261;28;20202;-60
2023/03/03 02:49:07;;;;;;;44.63;29.90;;;;;;;2.03;100.00;96747.06;5070507;28;20237;-60
2023/03/03 02:51:33;;;;;;;44.70;29.17;;;;;;;2.02;100.00;96750.56;5070568;28;20285;-59
2023/03/03 02:54:00;;;;;;;43.90;28.47;;;;;;;2.03;100.00;96752.25;5069561;28;20643;-60
2023/03/03 02:56:28;;;;;;;44.00;29.93;;;;;;;2.09;100.00;96753.69;5070527;28;20220;-60
2023/03/03 02:58:55;;;;;;;41.97;29.03;;;;;;;2.18;100.00;96756.59;5070148;28;20202;-60
2023/03/03 03:01:23;;;;;;;46.30;30.57;;;;;;;2.21;100.00;96753.81;5070182;28;20557;-59
2023/03/03 03:03:51;;;;;;;44.43;30.37;;;;;;;2.24;100.00;96756.25;5070713;28;20210;-59
2023/03/03 03:06:18;;;;;;;41.77;28.93;;;;;;;2.27;100.00;96756.06;5070313;28;20233;-59
2023/03/03 03:08:44;;;;;;;43.17;30.20;;;;;;;2.28;100.00;96756.91;5070761;28;20216;-60
2023/03/03 03:11:11;;;;;;;46.27;31.10;;;;;;;2.26;100.00;96758.78;5070369;28;20293;-59
2023/03/03 03:13:37;;;;;;;43.90;30.17;;;;;;;2.30;100.00;96760.28;5071094;28;20198;-59
2023/03/03 03:16:04;;;;;;;41.27;29.37;;;;;;;2.32;100.00;96753.19;5073736;28;20202;-60
2023/03/03 03:18:32;;;;;;;40.30;29.83;;;;;;;2.35;100.00;96753.84;5073762;28;20669;-60
2023/03/03 03:21:06;;;;;;;43.63;28.83;;;;;;;2.34;100.00;96749.53;5074366;28;20217;-60
2023/03/03 03:23:32;;;;;;;39.87;28.07;;;;;;;2.35;100.00;96746.00;5074293;28;20198;-59
2023/03/03 03:25:59;;;;;;;43.70;30.67;;;;;;;2.25;100.00;96746.66;5074420;28;20240;-60
2023/03/03 03:28:25;;;;;;;44.97;29.77;;;;;;;2.27;100.00;96752.59;5073890;28;20666;-60
2023/03/03 03:30:52;;;;;;;43.80;30.43;;;;;;;2.30;100.00;96753.25;5074077;28;20533;-59
2023/03/03 03:33:18;;;;;;;42.40;29.40;;;;;;;2.33;100.00;96752.25;5073903;28;20208;-59
2023/03/03 03:35:47;;;;;;;45.83;30.37;;;;;;;2.29;100.00;96746.38;5074508;28;20195;-60
2023/03/03 03:38:14;;;;;;;41.57;28.90;;;;;;;2.32;100.00;96753.19;5073599;28;20206;-59
2023/03/03 03:40:41;;;;;;;40.67;29.47;;;;;;;2.36;100.00;96739.03;5074254;28;20545;-59
2023/03/03 03:43:08;;;;;;;43.07;29.23;;;;;;;2.30;100.00;96742.81;5073599;28;20709;-59
2023/03/03 03:45:34;;;;;;;40.20;28.27;;;;;;;2.38;100.00;96742.38;5073577;28;20240;-60
2023/03/03 03:48:01;;;;;;;43.63;29.50;;;;;;;2.35;100.00;96734.72;5073669;28;20237;-60
2023/03/03 03:50:27;;;;;;;44.80;30.60;;;;;;;2.33;100.00;96739.22;5073548;28;20198;-60
2023/03/03 03:52:55;;;;;;;42.07;29.83;;;;;;;2.35;100.00;96742.56;5073510;28;20225;-59
2023/03/03 03:55:22;;;;;;;40.43;29.67;;;;;;;2.45;100.00;96741.06;5073630;28;20240;-60
2023/03/03 03:57:48;;;;;;;43.40;29.13;;;;;;;2.36;100.00;96739.03;5073041;28;20233;-59
2023/03/03 04:00:15;;;;;;;44.40;30.33;;;;;;;2.39;100.00;96736.22;5073567;28;20304;-60
2023/03/03 04:02:42;;;;;;;46.67;31.20;;;;;;;2.38;100.00;96732.78;5072856;28;20220;-60
2023/03/03 04:05:09;;;;;;;43.23;30.30;;;;;;;2.45;100.00;96739.31;5073104;28;20677;-59
2023/03/03 04:07:36;;;;;;;45.47;31.33;;;;;;;2.51;100.00;96738.13;5073219;28;20254;-60
2023/03/03 04:10:04;;;;;;;46.33;32.30;;;;;;;2.47;100.00;96741.84;5073315;28;20304;-60
2023/03/03 04:12:37;;;;;;;45.00;31.33;;;;;;;2.47;100.00;96736.63;5072962;28;20207;-59
2023/03/03 04:15:04;;;;;;;46.73;32.43;;;;;;;2.49;100.00;96737.38;5073163;28;20277;-60
2023/03/03 04:17:30;;;;;;;48.67;33.30;;;;;;;2.50;100.00;96739.06;5073369;28;20198;-60
2023/03/03 04:19:57;;;;;;;45.80;32.43;;;;;;;2.47;100.00;96734.00;5073676;28;20206;-60
2023/03/03 04:22:23;;;;;;;47.83;33.10;;;;;;;2.44;100.00;96732.41;5073177;28;20590;-59
2023/03/03 04:24:50;;;;;;;46.43;32.50;;;;;;;2.48;100.00;96739.13;5072884;28;20209;-59
2023/03/03 04:27:17;;;;;;;45.37;32.13;;;;;;;2.46;100.00;96743.63;5074143;28;20220;-60
2023/03/03 04:29:44;;;;;;;44.20;31.37;;;;;;;2.55;100.00;96741.41;5076079;28;20224;-59
2023/03/03 04:32:10;;;;;;;41.10;30.27;;;;;;;2.59;100.00;96746.31;5078059;28;20260;-60
2023/03/03 04:34:37;;;;;;;45.47;30.43;;;;;;;2.55;100.00;96749.22;5080595;28;20224;-60
2023/03/03 04:37:04;;;;;;;44.07;31.43;;;;;;;2.52;100.00;96752.84;5074417;28;20823;-60
2023/03/03 04:39:31;;;;;;;44.07;32.03;;;;;;;2.49;100.00;96750.41;5073787;28;20204;-60
2023/03/03 04:41:58;;;;;;;47.63;31.90;;;;;;;2.59;100.00;96745.50;5075925;28;20218;-60
2023/03/03 04:44:28;;;;;;;44.57;30.73;;;;;;;2.57;100.00;96753.41;5077548;28;20206;-59
2023/03/03 04:46:54;;;;;;;45.13;32.03;;;;;;;2.57;100.00;96758.63;5075680;28;20264;-60
2023/03/03 04:49:21;;;;;;;48.63;32.57;;;;;;;2.59;100.00;96755.94;5076096;28;20230;-60
2023/03/03 04:51:47;;;;;;;45.43;30.93;;;;;;;2.55;100.00;96757.88;5074589;28;20209;-60
2023/03/03 04:54:14;;;;;;;49.47;32.03;;;;;;;2.57;100.00;96763.84;5074789;28;20221;-60
2023/03/03 04:56:41;;;;;;;48.20;32.77;;;;;;;2.55;100.00;96755.25;5073426;28;20193;-59
2023/03/03 04:59:07;;;;;;;46.70;32.33;;;;;;;2.58;100.00;96759.47;5073125;28;20202;-60
2023/03/03 05:01:35;;;;;;;45.17;31.63;;;;;;;2.60;100.00;96761.06;5071674;28;20466;-58
2023/03/03 05:04:02;;;;;;;47.13;32.43;;;;;;;2.58;100.00;96759.47;5072629;28;20218;-60
2023/03/03 05:06:29;;;;;;;47.70;33.10;;;;;;;2.63;100.00;96758.25;5072159;28;20226;-59
2023/03/03 05:08:55;;;;;;;48.63;33.40;;;;;;;2.64;100.00;96765.16;5072667;28;20209;-60
2023/03/03 05:11:23;;;;;;;45.87;32.30;;;;;;;2.61;100.00;96762.75;5072586;28;20220;-59
2023/03/03 05:13:49;;;;;;;46.13;31.93;;;;;;;2.54;100.00;96757.97;5072405;28;20198;-60
2023/03/03 05:16:16;;;;;;;48.10;32.53;;;;;;;2.54;100.00;96763.19;5071972;28;20190;-58
2023/03/03 05:18:44;;;;;;;49.67;32.77;;;;;;;2.51;100.00;96759.81;5072950;28;20202;-60
2023/03/03 05:21:11;;;;;;;47.73;32.33;;;;;;;2.48;100.00;96753.94;5071887;28;20210;-59
2023/03/03 05:23:37;;;;;;;43.87;32.23;;;;;;;2.55;100.00;96759.66;5072254;28;20549;-60
2023/03/03 05:26:04;;;;;;;47.33;31.90;;;;;;;2.60;100.00;96758.44;5071781;28;20322;-59
2023/03/03 05:28:30;;;;;;;47.90;32.70;;;;;;;2.57;100.00;96753.41;5071714;28;20566;-59
2023/03/03 05:30:57;;;;;;;46.37;33.13;;;;;;;2.64;100.00;96764.31;5071480;28;20205;-60
2023/03/03 05:33:23;;;;;;;46.80;32.60;;;;;;;2.64;100.00;96765.16;5071598;28;20204;-59
2023/03/03 05:35:55;;;;;;;48.47;32.10;;;;;;;2.68;100.00;96771.03;5071722;28;20197;-59
2023/03/03 05:38:21;;;;;;;47.87;32.30;;;;;;;2.67;100.00;96764.97;5070894;28;20233;-60
2023/03/03 05:40:50;;;;;;;45.20;31.47;;;;;;;2.73;100.00;96769.81;5071844;28;20198;-58
2023/03/03 05:43:17;;;;;;;46.47;32.70;;;;;;;2.69;100.00;96773.56;5071255;28;20302;-60
2023/03/03 05:45:43;;;;;;;46.77;32.93;;;;;;;2.66;100.00;96781.56;5071562;28;20222;-60
2023/03/03 05:48:10;;;;;;;47.37;32.10;;;;;;;2.65;100.00;96782.53;5071416;28;20241;-59
2023/03/03 05:50:37;;;;;;;47.27;32.23;;;;;;;2.71;100.00;96776.06;5071616;28;20221;-60
2023/03/03 05:53:05;;;;;;;47.93;33.13;;;;;;;2.73;100.00;96782.06;5072459;28;20202;-60
2023/03/03 05:55:32;;;;;;;48.47;33.70;;;;;;;2.77;100.00;96780.94;5072905;28;20194;-60
2023/03/03 05:57:59;;;;;;;49.30;33.57;;;;;;;2.79;100.00;96785.16;5072222;28;20241;-59
2023/03/03 06:00:25;;;;;;;43.90;31.00;;;;;;;2.81;100.00;96783.25;5072605;28;20217;-60
2023/03/03 06:02:52;;;;;;;47.23;32.53;;;;;;;2.81;100.00;96783.25;5070854;28;20206;-60
2023/03/03 06:05:19;;;;;;;42.30;31.60;;;;;;;2.84;100.00;96784.84;5073269;28;20198;-60
2023/03/03 06:07:45;;;;;;;50.73;33.70;;;;;;;2.76;100.00;96787.94;5070485;28;20289;-60
2023/03/03 06:10:13;;;;;;;44.97;32.27;;;;;;;2.83;100.00;96789.25;5071881;28;20203;-59
2023/03/03 06:12:40;;;;;;;51.53;35.03;;;;;;;2.85;100.00;96790.00;5070237;28;20550;-59
2023/03/03 06:15:07;;;;;;;50.17;33.53;;;;;;;2.86;100.00;96798.66;5071894;28;20643;-59
2023/03/03 06:17:34;;;;;;;50.10;33.63;;;;;;;2.85;100.00;96795.22;5071535;28;20538;-60
2023/03/03 06:20:02;;;;;;;46.73;32.67;;;;;;;2.89;100.00;96799.31;5073121;28;20209;-59
2023/03/03 06:22:28;;;;;;;46.57;32.47;;;;;;;2.87;100.00;96801.16;5071491;28;20197;-59
2023/03/03 06:24:55;;;;;;;47.70;32.93;;;;;;;2.86;100.00;96802.13;5072825;28;20510;-60
2023/03/03 06:27:22;;;;;;;47.43;32.93;;;;;;;2.88;100.00;96809.84;5069799;28;20237;-61
2023/03/03 06:29:49;;;;;;;52.93;35.60;;;;;;;2.86;100.00;96812.56;5071073;28;20198;-59
2023/03/03 06:32:15;;;;;;;50.00;33.87;;;;;;;2.90;100.00;96811.47;5071415;28;20219;-60
2023/03/03 06:34:42;;;;;;;49.50;33.50;;;;;;;2.92;100.00;96816.56;5074865;28;20289;-59
2023/03/03 06:37:09;;;;;;;50.13;33.47;;;;;;;2.94;100.00;96823.38;5072801;28;20207;-59
2023/03/03 06:39:35;;;;;;;52.20;34.97;;;;;;;2.97;100.00;96818.00;5094001;28;20198;-59
2023/03/03 06:42:02;;;;;;;55.27;35.37;;;;;;;3.05;100.00;96822.72;5074444;28;20215;-59
2023/03/03 06:44:32;;;;;;;48.60;34.30;;;;;;;3.11;100.00;96816.31;5071284;28;20301;-59
2023/03/03 06:46:58;;;;;;;50.13;35.23;;;;;;;3.10;100.00;96819.84;5070637;28;20219;-60
2023/03/03 06:49:25;;;;;;;54.77;34.63;;;;;;;3.09;100.00;96832.06;5072288;28;20242;-60
2023/03/03 06:51:51;;;;;;;53.30;34.93;;;;;;;3.04;100.00;96828.06;5074794;28;20217;-58
2023/03/03 06:54:20;;;;;;;56.60;36.17;;;;;;;3.07;100.00;96830.50;5087535;28;20204;-60
2023/03/03 06:56:47;;;;;;;52.60;33.80;;;;;;;3.15;100.00;96838.72;5088033;28;20225;-58
2023/03/03 06:59:15;;;;;;;51.70;35.27;;;;;;;3.23;100.00;96839.91;5091026;28;20210;-57
2023/03/03 07:01:44;;;;;;;49.10;32.70;;;;;;;3.32;100.00;96838.50;5081378;28;20216;-58
2023/03/03 07:04:20;;;;;;;55.87;35.33;;;;;;;3.38;100.00;96845.97;5083081;28;20198;-57
2023/03/03 07:06:47;;;;;;;49.87;33.87;;;;;;;3.46;100.00;96843.72;5093615;28;20216;-58
2023/03/03 07:09:20;;;;;;;51.73;34.50;;;;;;;3.56;100.00;96849.22;5093604;28;20203;-58
2023/03/03 07:11:47;;;;;;;50.07;35.20;;;;;;;3.69;100.00;96850.97;5090514;28;20213;-57
2023/03/03 07:14:16;;;;;;;54.93;35.57;;;;;;;3.73;100.00;96852.47;5093624;28;20258;-56
2023/03/03 07:16:46;;;;;;;50.37;34.90;;;;;;;3.72;100.00;96850.78;5091038;28;20194;-58
2023/03/03 07:19:19;;;;;;;51.37;33.80;;;;;;;3.66;100.00;96860.78;5093350;28;20202;-59
2023/03/03 07:21:46;;;;;;;52.37;35.17;;;;;;;3.66;100.00;96856.41;5094819;28;20205;-59
2023/03/03 07:24:26;;;;;;;52.60;35.87;;;;;;;3.60;99.89;96862.03;5096342;28;20201;-59
2023/03/03 07:26:52;;;;;;;48.73;34.40;;;;;;;3.54;100.00;96857.19;5092318;28;20206;-62
2023/03/03 07:29:23;;;;;;;51.27;34.70;;;;;;;3.53;100.00;96860.72;5094272;28;20265;-59
2023/03/03 07:31:51;;;;;;;52.63;34.27;;;;;;;3.57;100.00;96861.38;5094047;28;20213;-58
2023/03/03 07:34:21;;;;;;;50.30;34.93;;;;;;;3.60;100.00;96862.03;5095096;28;20193;-59
2023/03/03 07:36:50;;;;;;;51.30;35.60;;;;;;;3.61;100.00;96863.72;5093376;28;20190;-59
2023/03/03 07:39:30;;;;;;;51.67;35.80;;;;;;;3.65;100.00;96864.34;5094977;28;20206;-59
2023/03/03 07:42:03;;;;;;;48.63;34.53;;;;;;;3.71;100.00;96875.28;5089913;28;20196;-59
2023/03/03 07:44:35;;;;;;;52.17;35.07;;;;;;;3.72;99.49;96871.69;5094900;28;20174;-59
2023/03/03 07:47:16;;;;;;;50.17;33.37;;;;;;;3.73;99.72;96868.16;5091064;28;20214;-59
2023/03/03 07:49:43;;;;;;;53.47;35.97;;;;;;;3.79;98.57;96865.16;5091686;28;20240;-60
2023/03/03 07:52:21;;;;;;;51.73;35.70;;;;;;;3.69;98.39;96871.06;5092197;28;20216;-59
2023/03/03 07:54:47;;;;;;;51.03;35.03;;;;;;;3.68;98.02;96880.69;5092079;28;20256;-59
2023/03/03 07:57:20;;;;;;;52.47;35.07;;;;;;;3.66;99.10;96876.47;5093755;28;20188;-61
2023/03/03 07:59:48;;;;;;;55.73;37.40;;;;;;;3.67;98.73;96878.16;5092267;28;20201;-59
2023/03/03 08:02:38;;;;;;;52.13;35.60;;;;;;;3.69;98.47;96887.59;5091500;28;20213;-60
2023/03/03 08:05:25;;;;;;;57.73;35.63;;;;;;;3.68;98.63;96885.94;5078380;28;20207;-61
2023/03/03 08:07:53;;;;;;;56.50;36.37;;;;;;;3.76;98.94;96883.66;5075024;28;20241;-59
2023/03/03 08:10:32;;;;;;;51.07;34.93;;;;;;;3.81;98.08;96886.84;5074229;28;20203;-58
2023/03/03 08:13:01;;;;;;;51.13;35.10;;;;;;;3.86;97.39;96889.97;5074978;28;20202;-59
2023/03/03 08:15:31;;;;;;;51.90;34.17;;;;;;;3.94;96.67;96887.72;5073671;28;20211;-58
2023/03/03 08:18:01;;;;;;;54.97;36.37;;;;;;;3.96;96.57;96890.28;5072938;28;20209;-58
2023/03/03 08:20:54;;;;;;;56.60;35.93;;;;;;;3.94;96.91;96890.34;5073776;28;20202;-59
2023/03/03 08:23:21;;;;;;;53.80;35.93;;;;;;;3.98;96.81;96894.47;5073372;28;20202;-59
2023/03/03 08:25:49;;;;;;;52.97;35.23;;;;;;;3.97;97.53;96884.06;5073155;28;20198;-59
2023/03/03 08:28:16;;;;;;;51.23;35.87;;;;;;;3.97;97.56;96884.06;5073592;28;20207;-59
2023/03/03 08:30:44;;;;;;;55.47;36.27;;;;;;;4.01;97.24;96888.19;5071363;28;20206;-59
2023/03/03 08:33:12;;;;;;;51.10;34.43;;;;;;;4.06;97.94;96888.75;5072017;28;20639;-59
2023/03/03 08:35:38;;;;;;;54.07;36.13;;;;;;;4.13;96.79;96886.56;5072351;28;20202;-59
2023/03/03 08:38:05;;;;;;;54.67;36.47;;;;;;;4.15;96.55;96885.53;5073243;28;20213;-59
2023/03/03 08:40:32;;;;;;;55.37;37.10;;;;;;;4.18;95.81;96882.72;5072409;28;20711;-59
2023/03/03 08:42:59;;;;;;;59.33;37.93;;;;;;;4.21;96.33;96877.31;5073468;28;20194;-58
2023/03/03 08:45:26;;;;;;;57.27;38.97;;;;;;;4.20;95.75;96882.63;5073157;28;20214;-59
2023/03/03 08:47:52;;;;;;;52.73;35.70;;;;;;;4.25;96.82;96881.38;5072130;28;20697;-59
2023/03/03 08:50:20;;;;;;;50.83;35.90;;;;;;;4.23;96.13;96882.44;5071966;28;20211;-59
2023/03/03 08:52:47;;;;;;;51.93;36.00;;;;;;;4.31;96.57;96883.63;5071821;28;20554;-59
2023/03/03 08:55:13;;;;;;;57.43;37.27;;;;;;;4.30;97.47;96883.72;5072457;28;20218;-59
2023/03/03 08:57:41;;;;;;;53.50;36.33;;;;;;;4.39;96.43;96893.59;5072262;28;20206;-59
2023/03/03 09:00:12;;;;;;;53.63;37.33;;;;;;;4.43;95.86;96895.91;5071336;28;20206;-59
2023/03/03 09:02:39;;;;;;;54.90;37.67;;;;;;;4.41;96.24;96895.19;5071942;28;20206;-57
2023/03/03 09:05:07;;;;;;;56.47;37.53;;;;;;;4.40;96.05;96892.66;5072100;28;20210;-61
2023/03/03 09:07:35;;;;;;;55.80;35.63;;;;;;;4.51;96.12;96898.03;5072828;28;20222;-60
2023/03/03 09:10:02;;;;;;;57.90;38.37;;;;;;;4.43;95.00;96895.06;5071960;28;20206;-58
2023/03/03 09:12:31;;;;;;;57.83;37.27;;;;;;;4.38;95.41;96898.00;5072140;28;20194;-59
2023/03/03 09:15:00;;;;;;;56.33;38.07;;;;;;;4.40;94.80;96903.13;5072369;28;20212;-62
2023/03/03 09:17:30;;;;;;;60.37;37.10;;;;;;;4.43;95.54;96908.16;5073501;28;20566;-59
2023/03/03 09:20:01;;;;;;;59.27;38.27;;;;;;;4.41;94.45;96910.88;5073799;28;20206;-58
2023/03/03 09:22:28;;;;;;;54.57;36.43;;;;;;;4.43;94.43;96908.16;5073617;28;20199;-58
2023/03/03 09:24:59;;;;;;;58.40;38.03;;;;;;;4.28;93.24;96903.91;5080357;28;20191;-59
2023/03/03 09:27:30;;;;;;;53.83;37.23;;;;;;;4.33;95.46;96909.69;5083156;28;20226;-59
2023/03/03 09:29:57;;;;;;;56.80;36.77;;;;;;;4.40;95.51;96910.97;5084064;28;20218;-58
2023/03/03 09:32:31;;;;;;;56.97;37.93;;;;;;;4.50;95.65;96912.06;5073706;28;20218;-57
2023/03/03 09:34:59;;;;;;;59.47;37.50;;;;;;;4.47;94.34;96913.09;5074190;28;20236;-58
2023/03/03 09:37:27;;;;;;;56.73;38.13;;;;;;;4.53;93.97;96917.94;5073744;28;20309;-58
2023/03/03 09:39:56;;;;;;;55.53;38.50;;;;;;;4.56;94.63;96922.16;5078812;28;20203;-58
2023/03/03 09:42:42;;;;;;;54.63;37.17;;;;;;;4.62;93.97;96921.75;5081382;28;20226;-58
2023/03/03 09:45:34;;;;;;;54.60;38.07;;;;;;;4.67;93.92;96921.44;5073065;28;20206;-58
2023/03/03 09:48:12;;;;;;;59.17;38.00;;;;;;;4.67;92.79;96919.69;5075455;28;20253;-57
2023/03/03 09:50:48;;;;;;;53.10;37.03;;;;;;;4.80;92.45;96920.53;5077390;28;20203;-59
2023/03/03 09:53:22;;;;;;;56.13;37.47;;;;;;;4.72;92.25;96917.56;5073839;28;20202;-56
2023/03/03 09:55:53;;;;;;;55.50;37.07;;;;;;;4.84;93.17;96916.78;5071415;28;20214;-57
2023/03/03 09:58:32;;;;;;;57.27;38.30;;;;;;;4.91;93.05;96911.97;5073407;28;20191;-58
2023/03/03 10:01:07;;;;;;;57.80;39.13;;;;;;;4.94;92.98;96909.16;5070951;28;20213;-58
2023/03/03 10:03:49;;;;;;;58.70;37.50;;;;;;;5.04;92.64;96912.81;5071590;28;20300;-58
2023/03/03 10:06:22;;;;;;;62.17;38.97;;;;;;;4.99;92.36;96901.84;5070754;28;20500;-55
2023/03/03 10:08:59;;;;;;;60.70;39.47;;;;;;;5.07;92.35;96901.28;5072349;28;20230;-55
2023/03/03 10:11:32;;;;;;;61.33;38.57;;;;;;;5.08;92.53;96902.97;5069890;28;20205;-56
2023/03/03 10:14:33;;;;;;;54.67;35.93;;;;;;;5.25;91.53;96915.78;5072807;28;20206;-56
2023/03/03 10:17:18;;;;;;;53.27;36.37;;;;;;;5.31;90.59;96913.59;5035765;28;20268;-55
2023/03/03 10:19:50;;;;;;;55.03;37.90;;;;;;;5.36;89.90;96908.03;5073176;28;20202;-55
2023/03/03 10:22:23;;;;;;;55.90;37.90;;;;;;;5.25;90.57;96900.88;5075571;28;20195;-56
2023/03/03 10:24:59;;;;;;;61.57;39.50;;;;;;;5.35;90.00;96901.13;5081547;28;20212;-57
2023/03/03 10:27:37;;;;;;;58.17;39.53;;;;;;;5.50;90.46;96905.28;5076969;28;20293;-56
2023/03/03 10:30:12;;;;;;;60.20;40.33;;;;;;;5.31;90.95;96905.75;5071068;28;20199;-55
2023/03/03 10:32:51;;;;;;;57.83;36.90;;;;;;;5.42;89.35;96903.19;5070091;28;20224;-56
2023/03/03 10:35:45;;;;;;;56.23;38.60;;;;;;;5.54;90.49;96909.41;5068633;28;20704;-55
2023/03/03 10:38:21;;;;;;;59.73;39.27;;;;;;;5.49;89.57;96904.47;5071097;28;20199;-54
2023/03/03 10:40:51;;;;;;;55.63;38.17;;;;;;;5.67;89.66;96906.78;5071225;28;20190;-54
2023/03/03 10:43:33;;;;;;;57.77;39.07;;;;;;;5.66;88.67;96916.44;5070476;28;20202;-56
2023/03/03 10:46:19;;;;;;;53.47;38.53;;;;;;;5.66;88.06;96910.34;5070561;28;20202;-54
2023/03/03 10:48:55;;;;;;;57.13;38.80;;;;;;;5.57;89.31;96922.28;5070533;28;20323;-54
2023/03/03 10:51:27;;;;;;;58.93;37.73;;;;;;;5.63;87.56;96921.88;5070768;28;20611;-56
2023/03/03 10:54:03;;;;;;;54.27;38.00;;;;;;;5.69;88.33;96913.59;5070351;28;20191;-54
2023/03/03 10:56:36;;;;;;;58.77;38.30;;;;;;;5.60;87.89;96916.81;5070301;28;20594;-55
2023/03/03 10:59:10;;;;;;;56.53;37.87;;;;;;;5.70;88.99;96923.16;5071659;28;20222;-56
2023/03/03 11:01:47;;;;;;;55.93;38.80;;;;;;;5.79;88.11;96919.03;5071962;28;20190;-55
2023/03/03 11:04:39;;;;;;;54.60;37.00;;;;;;;6.00;86.79;96914.94;5081125;28;20205;-55
2023/03/03 11:07:10;;;;;;;57.23;38.63;;;;;;;6.02;86.47;96917.47;5072320;28;20206;-56
2023/03/03 11:10:02;;;;;;;54.93;38.10;;;;;;;6.12;85.64;96910.59;5070365;28;20527;-56
2023/03/03 11:12:37;;;;;;;54.90;38.37;;;;;;;6.02;85.48;96913.06;5071107;28;20510;-56
2023/03/03 11:15:19;;;;;;;55.47;38.40;;;;;;;6.11;86.04;96912.38;5070842;28;20194;-55
2023/03/03 11:17:58;;;;;;;52.90;36.27;;;;;;;6.16;84.56;96912.06;5070811;28;20194;-55
2023/03/03 11:20:32;;;;;;;55.97;36.73;;;;;;;6.20;83.99;96911.72;5070759;28;20550;-55
2023/03/03 11:23:02;;;;;;;56.87;37.00;;;;;;;6.13;84.20;96909.66;5071106;28;20630;-57
2023/03/03 11:25:32;;;;;;;49.43;35.23;;;;;;;6.13;83.64;96914.91;5070578;28;20202;-57
2023/03/03 11:28:16;;;;;;;50.83;35.10;;;;;;;6.05;83.73;96909.34;5071054;28;20206;-56
2023/03/03 11:30:51;;;;;;;48.73;34.77;;;;;;;6.25;83.36;96911.38;5069589;28;20199;-53
2023/03/03 11:33:22;;;;;;;50.57;33.60;;;;;;;6.42;84.34;96903.13;5069965;28;20206;-53